Main page
METAR-TAF:

METAR-TAF

Airports :

Oran, Algeria

Oran Es Sénia Airport

latitude: 35-38N, longitude: 000-36W, elevation: 90 m

Current weather observation

The report was made 18 minutes ago, at 03:30 UTC
Wind 2 kt from the North
Temperature 16°C
Humidity 94%
Pressure 1020 hPa
Visibility 10 km or more
no clouds below 1500 m and no cumulonimbus

METAR: DAOO 200330Z 36002KT CAVOK 16/15 Q1020

Time: 04:48 (03:48 UTC)

Forecast

The report was made 4 hours and 48 minutes ago, at 23:00 UTC
Forecast valid from 20 at 00 UTC to 20 at 24 UTC
Wind 2 kt from variable directions
Visibility 10 km or more
Few clouds at a height of 1000 ft
Becoming
from 20 at 09 UTC to 20 at 12 UTC
Wind 10 kt from the East/Northeast
Visibility 10 km or more
no clouds below 1500 m and no cumulonimbus
Becoming
from 20 at 18 UTC to 20 at 21 UTC
Wind 10 kt from the Southwest

TAF: DAOO 192300Z 2000/2024 VRB02KT 9999 FEW010 BECMG 2009/2012 06010KT CAVOK BECMG 2018/2021 22010KT

Weather observations and forecasts of more than 4000 airports (METAR and TAF reports).

The available stations are represented by yellow and red dots on the map.

Hover mouse over dot to see the name of the station.

Then click to see weather observations and forecasts.

To change the map : click on the green buttons with a black cross to zoom in, on the green button with a dash to zoom out, or on the green arrows for adjacent maps.


METAR-TAF: